Time;durP1;ratioP1;P1;durP2;ratioP2;P2;SDS_P1;SDS_P2;PMS_P1;PMS_P2;Temp;Humidity;BMP_temperature;BMP_pressure;BME280_temperature;BME280_humidity;BME280_pressure;Samples;Min_cycle;Max_cycle;Signal;HPM_P1;HPM_P2
2023/05/12 00:00:13;;;;;;;3.63;3.00;;;11.60;99.90;;;10.65;100.00;97617.84;5009513;28;20049;-78
2023/05/12 00:02:41;;;;;;;6.05;4.20;;;11.70;99.90;;;10.62;100.00;97612.75;5022593;28;20050;-78
2023/05/12 00:05:09;;;;;;;6.15;4.57;;;11.70;99.90;;;10.68;100.00;97614.25;5025128;28;20052;-78
2023/05/12 00:07:36;;;;;;;4.43;3.50;;;11.60;99.90;;;10.82;100.00;97616.25;5022289;28;20049;-78
2023/05/12 00:10:03;;;;;;;5.35;3.72;;;11.60;99.90;;;10.89;100.00;97615.09;5006429;28;20544;-78
2023/05/12 00:12:31;;;;;;;5.20;4.00;;;11.60;99.90;;;10.94;100.00;97607.09;4990177;28;20053;-77
2023/05/12 00:14:58;;;;;;;7.22;4.07;;;11.70;99.90;;;10.93;100.00;97611.47;5025983;28;20465;-78
2023/05/12 00:17:26;;;;;;;4.90;3.63;;;11.80;99.90;;;10.94;100.00;97604.50;5005864;28;20115;-78
2023/05/12 00:19:53;;;;;;;5.82;4.10;;;11.70;99.90;;;10.91;100.00;97596.84;5022016;28;20120;-77
2023/05/12 00:22:21;;;;;;;6.25;4.68;;;11.70;99.90;;;10.92;100.00;97596.75;5026103;28;20620;-78
2023/05/12 00:24:48;;;;;;;4.97;3.72;;;11.70;99.90;;;10.89;100.00;97589.97;5024821;28;20046;-79
2023/05/12 00:27:15;;;;;;;4.93;3.88;;;11.70;99.90;;;10.94;100.00;97591.50;5021696;28;20803;-78
2023/05/12 00:29:42;;;;;;;5.88;3.58;;;11.70;99.90;;;11.00;100.00;97588.66;5031962;28;20512;-78
2023/05/12 00:32:09;;;;;;;4.68;3.58;;;11.70;99.90;;;10.92;100.00;97588.97;5019822;28;20061;-78
2023/05/12 00:34:36;;;;;;;5.32;3.72;;;11.70;99.90;;;10.82;100.00;97577.31;5025740;28;20049;-78
2023/05/12 00:37:03;;;;;;;6.15;3.65;;;11.80;99.90;;;10.67;100.00;97582.28;5023824;28;20104;-78
2023/05/12 00:39:30;;;;;;;6.78;3.78;;;11.70;99.90;;;10.68;100.00;97585.72;5026160;28;20049;-78
2023/05/12 00:41:58;;;;;;;8.13;4.93;;;11.70;99.90;;;10.55;100.00;97587.13;5038497;28;20053;-78
2023/05/12 00:44:26;;;;;;;7.45;5.07;;;11.60;99.90;;;10.74;100.00;97582.00;5022581;28;20432;-79
2023/05/12 00:46:54;;;;;;;8.10;5.45;;;11.60;99.90;;;10.72;100.00;97582.06;5006298;28;20067;-78
2023/05/12 00:49:25;;;;;;;6.00;4.82;;;11.70;99.90;;;10.62;100.00;97586.78;5020931;28;20087;-78
2023/05/12 00:51:57;;;;;;;6.80;4.90;;;11.60;99.90;;;10.56;100.00;97584.47;5023815;28;20175;-79
2023/05/12 00:54:28;;;;;;;5.50;4.40;;;11.60;99.90;;;10.64;100.00;97589.34;5010454;28;20734;-78
2023/05/12 00:56:56;;;;;;;6.90;4.68;;;11.60;99.90;;;10.48;100.00;97580.50;5038123;28;20057;-78
2023/05/12 00:59:23;;;;;;;8.68;4.50;;;11.60;99.90;;;10.39;100.00;97577.38;5003051;28;20129;-78
2023/05/12 01:01:50;;;;;;;5.63;3.92;;;11.50;99.90;;;10.49;100.00;97575.28;5039429;28;20056;-78
2023/05/12 01:04:17;;;;;;;6.15;3.58;;;11.50;99.90;;;10.46;100.00;97581.41;5022343;28;20056;-78
2023/05/12 01:06:54;;;;;;;6.13;4.30;;;11.50;99.90;;;10.38;100.00;97577.47;5023725;28;20581;-78
2023/05/12 01:09:21;;;;;;;6.85;4.05;;;11.50;99.90;;;10.42;100.00;97576.41;5021379;28;20147;-78
2023/05/12 01:11:50;;;;;;;6.07;4.35;;;11.40;99.90;;;10.45;100.00;97574.53;5024633;28;20056;-79
2023/05/12 01:14:17;;;;;;;6.28;4.53;;;11.40;99.90;;;10.39;100.00;97573.97;5025932;28;20429;-78
2023/05/12 01:16:58;;;;;;;4.43;3.53;;;11.40;99.90;;;10.43;100.00;97568.56;5009607;28;20045;-79
2023/05/12 01:19:52;;;;;;;6.25;3.47;;;11.40;99.90;;;10.42;100.00;97571.22;5031893;28;20041;-79
2023/05/12 01:22:20;;;;;;;4.68;3.50;;;11.40;99.90;;;10.32;100.00;97565.59;5009203;28;20049;-78
2023/05/12 01:24:55;;;;;;;5.70;3.78;;;11.40;99.90;;;10.38;100.00;97570.53;5026978;28;20466;-79
2023/05/12 01:27:25;;;;;;;7.00;4.63;;;11.40;99.90;;;10.50;100.00;97570.91;5024314;28;20050;-78
2023/05/12 01:29:56;;;;;;;6.95;4.45;;;11.30;99.90;;;10.60;100.00;97578.22;5024840;28;20538;-78
2023/05/12 01:32:25;;;;;;;6.28;4.32;;;11.40;99.90;;;10.54;100.00;97578.50;5021561;28;20046;-78
2023/05/12 01:34:52;;;;;;;5.55;3.53;;;11.40;99.90;;;10.53;100.00;97578.56;5010115;28;20087;-78
2023/05/12 01:37:19;;;;;;;5.70;4.45;;;11.40;99.90;;;10.48;100.00;97575.31;4993084;28;20037;-78
2023/05/12 01:39:47;;;;;;;7.50;5.75;;;11.40;99.90;;;10.40;100.00;97570.44;5023831;28;20096;-78
2023/05/12 01:42:14;;;;;;;7.07;5.60;;;11.40;99.90;;;10.35;100.00;97573.22;5025307;28;20117;-78
2023/05/12 01:44:41;;;;;;;6.60;4.85;;;11.40;99.90;;;10.33;100.00;97572.47;5023247;28;20052;-78
2023/05/12 01:47:10;;;;;;;10.20;6.07;;;11.30;99.90;;;10.37;100.00;97573.19;5021247;28;20041;-77
2023/05/12 01:49:37;;;;;;;6.20;5.30;;;11.30;99.90;;;10.54;100.00;97565.53;5024831;28;20057;-77
2023/05/12 01:52:05;;;;;;;5.88;4.90;;;11.30;99.90;;;10.57;100.00;97570.59;5025879;28;20049;-77
2023/05/12 01:54:32;;;;;;;6.80;5.28;;;11.40;99.90;;;10.48;100.00;97563.19;5021579;28;20129;-78
2023/05/12 01:56:59;;;;;;;6.13;5.00;;;11.40;99.90;;;10.32;100.00;97563.00;5021826;28;20059;-77
2023/05/12 01:59:27;;;;;;;7.88;5.55;;;11.40;99.90;;;10.38;100.00;97565.34;5022775;28;20217;-77
2023/05/12 02:01:54;;;;;;;7.97;4.90;;;11.30;99.90;;;10.33;100.00;97572.47;5023027;28;20053;-78
2023/05/12 02:04:22;;;;;;;6.20;4.88;;;11.30;99.90;;;10.33;100.00;97571.59;5022988;28;20187;-78
2023/05/12 02:06:50;;;;;;;7.07;5.15;;;11.30;99.90;;;10.38;100.00;97572.28;5023059;28;20060;-78
2023/05/12 02:09:17;;;;;;;5.97;4.50;;;11.30;99.90;;;10.43;100.00;97568.56;5025869;28;20070;-78
2023/05/12 02:11:44;;;;;;;9.55;5.70;;;11.30;99.90;;;10.62;100.00;97571.22;5008978;28;20049;-78
2023/05/12 02:14:12;;;;;;;6.45;5.40;;;11.30;99.90;;;10.67;100.00;97569.28;5020977;28;20142;-77
2023/05/12 02:16:39;;;;;;;6.25;5.10;;;11.40;99.90;;;10.73;100.00;97569.94;5028923;28;20049;-78
2023/05/12 02:19:06;;;;;;;6.15;4.57;;;11.40;99.90;;;10.74;100.00;97571.59;5022531;28;20123;-78
2023/05/12 02:21:33;;;;;;;9.43;6.30;;;11.50;99.90;;;10.60;100.00;97567.84;5025319;28;20049;-78
2023/05/12 02:24:01;;;;;;;8.18;5.90;;;11.50;99.90;;;10.65;100.00;97557.25;5020723;28;20053;-78
2023/05/12 02:26:28;;;;;;;5.53;4.82;;;11.50;99.90;;;10.62;100.00;97560.84;5023060;28;20573;-77
2023/05/12 02:28:55;;;;;;;6.38;5.70;;;11.50;99.90;;;10.60;100.00;97557.47;5025851;28;20776;-77
2023/05/12 02:31:22;;;;;;;6.78;5.55;;;11.50;99.90;;;10.67;100.00;97563.22;5025063;28;20059;-78
2023/05/12 02:33:50;;;;;;;9.32;7.10;;;11.50;99.90;;;10.70;100.00;97560.53;5024093;28;20534;-77
2023/05/12 02:36:17;;;;;;;8.80;6.93;;;11.60;99.90;;;10.66;100.00;97557.22;5022973;28;20073;-78
2023/05/12 02:38:44;;;;;;;9.00;6.18;;;11.60;99.90;;;10.64;100.00;97558.19;5025408;28;20053;-78
2023/05/12 02:41:12;;;;;;;9.23;6.68;;;11.60;99.90;;;10.53;100.00;97552.59;5022166;28;20037;-77
2023/05/12 02:43:38;;;;;;;7.03;5.35;;;11.60;99.90;;;10.61;100.00;97561.75;5023556;28;20045;-77
2023/05/12 02:46:06;;;;;;;7.53;5.90;;;11.60;99.90;;;10.65;100.00;97550.34;5038598;28;20563;-77
2023/05/12 02:48:33;;;;;;;7.03;5.03;;;11.50;99.90;;;10.73;100.00;97552.59;5035995;28;20570;-77
2023/05/12 02:51:00;;;;;;;8.93;7.22;;;11.50;99.90;;;10.62;100.00;97549.63;5022891;28;20064;-78
2023/05/12 02:53:28;;;;;;;8.88;6.32;;;11.50;99.90;;;10.65;100.00;97550.34;5020531;28;20054;-77
2023/05/12 02:55:55;;;;;;;10.68;7.03;;;11.60;99.90;;;10.63;100.00;97549.56;4992608;28;20709;-78
2023/05/12 02:58:22;;;;;;;9.95;6.75;;;11.60;99.90;;;10.76;100.00;97552.44;5024941;28;20053;-77
2023/05/12 03:00:49;;;;;;;9.10;6.63;;;11.60;99.90;;;10.82;100.00;97552.19;5010443;28;20042;-78
2023/05/12 03:03:32;;;;;;;8.82;6.72;;;11.70;99.90;;;10.75;100.00;97553.38;5008222;28;20195;-77
2023/05/12 03:06:00;;;;;;;9.70;6.75;;;11.70;99.90;;;10.81;100.00;97552.25;5027650;28;20128;-77
2023/05/12 03:08:27;;;;;;;8.18;6.10;;;11.70;99.90;;;10.88;100.00;97556.28;5010054;28;20051;-77
2023/05/12 03:10:54;;;;;;;7.32;6.00;;;11.70;99.90;;;11.00;100.00;97544.50;5027071;28;20061;-77
2023/05/12 03:13:21;;;;;;;8.23;6.03;;;11.70;99.90;;;11.05;100.00;97543.38;5007769;28;20049;-77
2023/05/12 03:15:48;;;;;;;10.52;7.60;;;11.80;99.90;;;10.83;100.00;97547.84;5024418;28;20057;-77
2023/05/12 03:18:15;;;;;;;10.10;7.53;;;11.80;99.90;;;10.89;100.00;97551.00;5041143;28;20136;-77
2023/05/12 03:20:42;;;;;;;8.38;6.07;;;11.70;99.90;;;10.87;100.00;97549.38;5023067;28;20493;-77
2023/05/12 03:23:09;;;;;;;7.60;6.40;;;11.70;99.90;;;10.90;100.00;97549.25;5025067;28;20045;-77
2023/05/12 03:25:36;;;;;;;6.97;5.50;;;11.70;99.90;;;10.85;100.00;97548.59;5009636;28;20504;-77
2023/05/12 03:28:04;;;;;;;12.85;8.85;;;11.70;99.90;;;10.76;100.00;97549.00;5027010;28;20052;-77
2023/05/12 03:30:32;;;;;;;10.65;8.25;;;11.70;99.90;;;10.71;100.00;97551.81;5025126;28;20063;-78
2023/05/12 03:32:59;;;;;;;10.27;6.78;;;11.60;99.90;;;10.80;100.00;97554.00;5020698;28;20051;-77
2023/05/12 03:35:26;;;;;;;10.10;7.97;;;11.60;99.90;;;10.84;100.00;97547.78;5009408;28;20494;-77
2023/05/12 03:37:53;;;;;;;11.00;8.02;;;11.60;99.90;;;10.74;100.00;97553.44;5024684;28;20056;-77
2023/05/12 03:40:20;;;;;;;10.88;8.20;;;11.60;99.90;;;10.70;100.00;97554.47;5027103;28;20037;-77
2023/05/12 03:42:47;;;;;;;10.15;8.00;;;11.70;99.90;;;10.65;100.00;97552.06;5024127;28;20288;-77
2023/05/12 03:45:15;;;;;;;9.95;7.00;;;11.70;99.90;;;10.73;100.00;97551.75;5026433;28;20417;-78
2023/05/12 03:47:42;;;;;;;11.40;7.13;;;11.60;99.90;;;10.81;100.00;97555.72;5021957;28;20045;-77
2023/05/12 03:50:10;;;;;;;9.85;6.85;;;11.70;99.90;;;10.77;100.00;97551.56;5007521;28;20061;-76
2023/05/12 03:52:37;;;;;;;10.05;7.60;;;11.70;99.90;;;10.72;100.00;97556.13;5025512;28;20053;-77
2023/05/12 03:55:05;;;;;;;14.18;8.80;;;11.70;99.90;;;10.78;100.00;97550.63;5023041;28;20045;-77
2023/05/12 03:57:35;;;;;;;12.73;9.65;;;11.70;99.90;;;10.65;100.00;97547.75;5025725;28;20096;-77
2023/05/12 04:00:04;;;;;;;12.52;9.10;;;11.60;99.90;;;10.70;100.00;97536.28;4994716;28;20049;-77
2023/05/12 04:02:32;;;;;;;12.00;8.50;;;11.60;99.90;;;10.78;100.00;97542.84;5022251;28;20052;-77
2023/05/12 04:04:59;;;;;;;13.38;8.13;;;11.60;99.90;;;10.76;100.00;97549.84;5020521;28;20425;-77
2023/05/12 04:07:26;;;;;;;11.85;8.30;;;11.60;99.90;;;10.70;100.00;97542.34;5025286;28;20045;-77
2023/05/12 04:09:53;;;;;;;12.93;8.57;;;11.60;99.90;;;10.89;100.00;97550.16;5023094;28;20793;-77
2023/05/12 04:12:20;;;;;;;9.93;8.20;;;11.60;99.90;;;10.83;100.00;97550.44;5018137;28;20506;-77
2023/05/12 04:14:48;;;;;;;12.85;9.80;;;11.60;99.90;;;10.77;100.00;97542.94;5005603;28;20058;-77
2023/05/12 04:17:17;;;;;;;11.45;8.77;;;11.60;99.90;;;10.96;100.00;97546.38;5023626;28;20053;-77
2023/05/12 04:19:45;;;;;;;14.18;9.75;;;11.60;99.90;;;10.91;100.00;97545.75;5027742;28;20100;-77
2023/05/12 04:22:12;;;;;;;16.65;10.07;;;11.70;99.90;;;10.86;100.00;97545.13;5007476;28;20407;-77
2023/05/12 04:24:40;;;;;;;10.38;7.72;;;11.70;99.90;;;10.84;100.00;97547.78;5023236;28;20127;-77
2023/05/12 04:27:07;;;;;;;14.20;10.50;;;11.70;99.90;;;10.71;100.00;97548.38;5041022;28;20068;-77
2023/05/12 04:29:35;;;;;;;12.20;8.75;;;11.70;99.90;;;10.74;100.00;97546.50;5024331;28;20056;-77
2023/05/12 04:32:02;;;;;;;14.27;9.57;;;11.60;99.90;;;10.70;100.00;97551.88;5022508;28;20057;-77
2023/05/12 04:34:32;;;;;;;9.52;7.72;;;11.60;99.90;;;10.71;100.00;97551.81;5023103;28;20048;-77
2023/05/12 04:37:00;;;;;;;10.70;8.00;;;11.60;99.90;;;10.96;100.00;97555.94;5024615;28;20057;-76
2023/05/12 04:39:27;;;;;;;13.80;10.13;;;11.70;99.90;;;10.91;100.00;97553.53;5024529;28;20081;-76
2023/05/12 04:41:54;;;;;;;9.20;7.65;;;11.70;99.90;;;10.79;100.00;97551.50;5021224;28;20060;-76
2023/05/12 04:44:22;;;;;;;10.35;8.23;;;11.70;99.90;;;10.86;100.00;97539.94;5005709;28;20132;-77
2023/05/12 04:46:52;;;;;;;10.48;7.70;;;11.70;99.90;;;10.75;100.00;97543.00;5022616;28;20073;-77
2023/05/12 04:49:19;;;;;;;11.50;7.82;;;11.70;99.90;;;10.92;100.00;97544.00;5040488;28;20060;-77
2023/05/12 04:51:46;;;;;;;9.30;7.10;;;11.70;99.90;;;11.08;100.00;97550.19;5024593;28;20049;-76
2023/05/12 04:54:13;;;;;;;10.50;8.15;;;11.70;99.90;;;11.23;100.00;97549.50;5025021;28;20158;-76
2023/05/12 04:56:40;;;;;;;11.38;8.13;;;11.80;99.90;;;11.22;100.00;97544.34;5022442;28;20076;-77
2023/05/12 04:59:07;;;;;;;7.93;6.10;;;11.90;99.90;;;11.20;100.00;97547.03;5023615;28;20066;-76
2023/05/12 05:01:34;;;;;;;8.48;6.68;;;11.90;99.90;;;11.26;100.00;97538.94;5026020;28;20044;-77
2023/05/12 05:04:02;;;;;;;9.35;6.82;;;12.00;99.90;;;11.23;100.00;97541.69;5024359;28;20046;-76
2023/05/12 05:06:29;;;;;;;9.98;7.68;;;12.00;99.90;;;11.29;100.00;97540.59;5027324;28;20041;-76
2023/05/12 05:08:58;;;;;;;8.77;7.72;;;11.90;99.90;;;11.24;100.00;97543.41;5025462;28;20049;-77
2023/05/12 05:11:26;;;;;;;9.38;7.15;;;12.00;99.90;;;11.36;100.00;97547.19;5002787;28;20139;-77
2023/05/12 05:13:54;;;;;;;9.50;6.93;;;12.00;99.90;;;11.46;100.00;97540.63;5022263;28;20053;-78
2023/05/12 05:16:21;;;;;;;8.40;6.22;;;12.10;99.90;;;11.48;100.00;97549.19;5008741;28;20053;-77
2023/05/12 05:18:48;;;;;;;8.00;6.68;;;12.10;99.90;;;11.62;100.00;97532.13;5007838;28;20061;-76
2023/05/12 05:21:15;;;;;;;11.15;7.38;;;12.20;99.90;;;11.41;100.00;97540.00;5025543;28;20042;-78
2023/05/12 05:23:42;;;;;;;9.02;6.80;;;12.20;99.90;;;11.42;100.00;97538.25;5025290;28;20053;-76
2023/05/12 05:26:10;;;;;;;9.27;6.60;;;12.20;99.90;;;11.58;100.00;97539.22;5024912;28;20049;-76
2023/05/12 05:28:38;;;;;;;8.18;6.38;;;12.20;99.90;;;11.59;100.00;97535.72;5024456;28;20084;-77
2023/05/12 05:31:06;;;;;;;9.70;7.50;;;12.30;99.90;;;11.65;100.00;97539.75;5019392;28;20434;-76
2023/05/12 05:33:33;;;;;;;8.18;6.32;;;12.30;99.90;;;11.83;100.00;97531.06;5038130;28;20052;-77
2023/05/12 05:36:00;;;;;;;8.82;7.60;;;12.40;99.90;;;11.91;100.00;97530.75;5040892;28;20132;-77
2023/05/12 05:38:29;;;;;;;12.77;8.00;;;12.50;99.90;;;11.67;100.00;97523.16;5023271;28;20832;-77
2023/05/12 05:40:56;;;;;;;11.80;7.32;;;12.50;99.90;;;11.51;100.00;97533.44;5022962;28;20046;-77
2023/05/12 05:43:23;;;;;;;7.88;6.75;;;12.30;99.90;;;11.60;100.00;97539.16;5025605;28;20155;-77
2023/05/12 05:45:50;;;;;;;8.02;6.80;;;12.30;99.90;;;11.68;100.00;97530.06;5020944;28;20514;-77
2023/05/12 05:48:18;;;;;;;7.47;6.03;;;12.40;99.90;;;11.78;100.00;97522.66;5004906;28;20034;-78
2023/05/12 05:50:45;;;;;;;8.38;6.05;;;12.40;99.90;;;11.74;100.00;97528.91;5021880;28;20053;-76
2023/05/12 05:53:19;;;;;;;11.02;7.32;;;12.50;99.90;;;11.80;100.00;97520.84;5006033;28;20057;-78
2023/05/12 05:55:50;;;;;;;7.00;5.53;;;12.50;99.90;;;12.09;100.00;97521.22;5022757;28;20056;-77
2023/05/12 05:58:17;;;;;;;7.18;6.00;;;12.60;99.90;;;11.86;100.00;97520.53;5024592;28;20684;-77
2023/05/12 06:00:44;;;;;;;8.13;6.75;;;12.70;99.90;;;11.90;100.00;97524.69;5016799;28;20145;-77
2023/05/12 06:03:11;;;;;;;6.63;5.30;;;12.70;99.90;;;11.98;100.00;97524.34;5008479;28;20050;-77
2023/05/12 06:05:40;;;;;;;6.45;5.18;;;12.70;99.90;;;11.86;100.00;97514.47;5022242;28;20513;-77
2023/05/12 06:08:11;;;;;;;6.53;4.78;;;12.70;99.90;;;11.71;100.00;97513.47;5009171;28;20057;-77
2023/05/12 06:10:39;;;;;;;5.40;4.32;;;12.70;99.90;;;11.94;100.00;97515.00;5007834;28;20056;-77
2023/05/12 06:13:07;;;;;;;5.57;4.57;;;12.70;99.90;;;12.24;100.00;97514.38;5023818;28;20054;-77
2023/05/12 06:15:34;;;;;;;8.38;4.40;;;12.80;99.90;;;12.39;100.00;97515.38;5024700;28;20049;-77
2023/05/12 06:18:02;;;;;;;6.03;4.50;;;12.90;99.90;;;12.42;100.00;97510.00;5026306;28;20069;-76
2023/05/12 06:20:28;;;;;;;5.25;4.22;;;13.00;99.90;;;12.44;100.00;97513.38;5025023;28;20049;-77
2023/05/12 06:22:56;;;;;;;5.10;4.07;;;13.10;99.90;;;12.18;100.00;97504.28;5026455;28;20144;-77
2023/05/12 06:25:23;;;;;;;5.47;3.45;;;13.10;99.90;;;12.12;100.00;97514.06;5025277;28;20076;-78
2023/05/12 06:27:51;;;;;;;5.50;3.78;;;13.10;99.90;;;12.19;100.00;97505.97;5028031;28;20049;-77
2023/05/12 06:30:19;;;;;;;4.00;3.30;;;12.90;99.90;;;12.31;100.00;97505.34;5009446;28;20433;-77
2023/05/12 06:32:46;;;;;;;4.55;3.10;;;12.90;99.90;;;12.07;100.00;97507.44;5025126;28;20057;-77
2023/05/12 06:35:14;;;;;;;3.70;3.05;;;13.00;99.90;;;12.44;100.00;97503.81;5045652;28;20549;-77
2023/05/12 06:37:43;;;;;;;5.70;4.25;;;13.00;99.90;;;12.71;100.00;97503.31;5030756;28;20045;-77
2023/05/12 06:40:10;;;;;;;3.80;3.03;;;13.00;99.90;;;12.54;100.00;97498.97;5031708;28;20100;-77
2023/05/12 06:42:38;;;;;;;4.65;3.35;;;13.20;99.90;;;12.72;100.00;97492.78;5028422;28;20080;-77
2023/05/12 06:45:07;;;;;;;3.88;2.90;;;13.30;99.90;;;12.88;100.00;97489.38;5030375;28;20056;-77
2023/05/12 06:47:34;;;;;;;8.15;3.03;;;13.30;99.90;;;13.02;100.00;97480.81;5029091;28;20052;-77
2023/05/12 06:50:01;;;;;;;3.63;2.92;;;13.40;99.90;;;13.14;100.00;97480.19;5030392;28;20049;-77
2023/05/12 06:52:28;;;;;;;4.25;3.30;;;13.50;99.90;;;13.30;100.00;97480.22;5030094;28;20410;-77
2023/05/12 06:54:55;;;;;;;7.13;2.80;;;13.70;99.90;;;12.86;100.00;97481.63;5031004;28;20053;-77
2023/05/12 06:57:23;;;;;;;4.50;3.03;;;13.90;99.90;;;12.95;100.00;97480.31;5028476;28;20053;-77
2023/05/12 06:59:51;;;;;;;3.80;2.90;;;13.70;99.90;;;12.82;100.00;97487.97;5028094;28;20045;-77
2023/05/12 07:02:18;;;;;;;5.18;2.35;;;13.60;99.90;;;13.03;100.00;97490.34;5025278;28;20135;-77
2023/05/12 07:04:46;;;;;;;3.90;3.03;;;13.60;99.90;;;12.67;100.00;97488.75;5030072;28;20042;-77
2023/05/12 07:07:13;;;;;;;3.40;2.58;;;13.60;99.90;;;13.02;100.00;97484.25;5012913;28;20052;-77
2023/05/12 07:09:44;;;;;;;3.55;2.80;;;13.50;99.90;;;12.71;100.00;97490.28;5030530;28;20048;-77
2023/05/12 07:12:11;;;;;;;2.97;2.45;;;13.50;99.90;;;12.86;100.00;97496.44;5028313;28;20107;-77
2023/05/12 07:14:38;;;;;;;3.35;2.30;;;13.50;99.90;;;12.61;100.00;97500.31;5011597;28;20096;-77
2023/05/12 07:17:05;;;;;;;3.40;2.63;;;13.50;99.90;;;12.61;100.00;97496.88;5012818;28;20418;-77
2023/05/12 07:19:34;;;;;;;3.10;2.28;;;13.40;99.90;;;12.82;100.00;97505.31;5029976;28;20056;-77
2023/05/12 07:22:01;;;;;;;3.53;2.22;;;13.40;99.90;;;12.96;100.00;97498.47;5011567;28;20076;-77
2023/05/12 07:24:28;;;;;;;3.63;2.60;;;13.50;99.90;;;13.27;100.00;97501.19;5030111;28;20124;-77
2023/05/12 07:26:56;;;;;;;3.28;2.35;;;13.60;99.90;;;13.26;100.00;97491.69;5024856;28;20124;-77
2023/05/12 07:29:23;;;;;;;3.38;2.30;;;13.70;99.90;;;12.79;100.00;97482.88;5030803;28;20505;-77
2023/05/12 07:31:50;;;;;;;3.95;2.20;;;13.80;99.90;;;12.92;100.00;97490.91;5012999;28;20536;-77
2023/05/12 07:34:17;;;;;;;3.92;2.10;;;13.70;99.90;;;13.07;100.00;97489.22;5023374;28;20045;-77
2023/05/12 07:36:44;;;;;;;4.50;2.13;;;13.70;99.90;;;13.07;100.00;97495.31;5027483;28;20049;-77
2023/05/12 07:39:13;;;;;;;2.95;2.40;;;13.70;99.90;;;13.27;100.00;97499.41;5028045;28;20053;-77
2023/05/12 07:41:41;;;;;;;2.15;1.67;;;13.80;99.90;;;13.06;100.00;97488.38;5028975;28;20052;-77
2023/05/12 07:44:08;;;;;;;2.53;1.80;;;13.90;99.90;;;13.46;100.00;97488.03;5011366;28;20041;-77
2023/05/12 07:46:35;;;;;;;2.97;1.58;;;13.90;99.90;;;13.34;100.00;97479.09;5011876;28;20049;-77
2023/05/12 07:49:02;;;;;;;2.83;1.73;;;14.00;99.90;;;13.53;100.00;97481.53;5029926;28;20413;-77
2023/05/12 07:51:29;;;;;;;2.58;1.67;;;14.10;99.90;;;13.83;100.00;97481.56;5007324;28;20049;-77
2023/05/12 07:53:57;;;;;;;2.47;2.05;;;14.20;99.90;;;13.72;100.00;97471.72;5029848;28;20413;-77
2023/05/12 07:56:24;;;;;;;3.38;1.80;;;14.30;99.90;;;14.25;100.00;97469.53;5010920;28;20049;-77
2023/05/12 07:58:51;;;;;;;2.30;1.83;;;14.30;99.90;;;13.63;100.00;97471.41;5027414;28;20054;-77
2023/05/12 08:01:19;;;;;;;2.38;1.80;;;14.40;99.90;;;14.01;100.00;97475.28;5027930;28;20050;-77
2023/05/12 08:03:46;;;;;;;3.13;1.95;;;14.40;99.90;;;13.71;100.00;97477.06;5023970;28;20443;-77
2023/05/12 08:06:13;;;;;;;2.95;2.05;;;14.50;99.90;;;13.42;100.00;97471.69;5031165;28;20128;-77
2023/05/12 08:08:40;;;;;;;2.72;2.20;;;14.40;99.90;;;13.52;100.00;97483.28;5027052;28;20050;-77
2023/05/12 08:11:09;;;;;;;4.78;2.10;;;14.40;99.90;;;13.44;100.00;97480.28;5028495;28;20049;-77
2023/05/12 08:13:37;;;;;;;2.40;1.95;;;14.30;99.90;;;13.59;100.00;97482.03;5026699;28;20088;-77
2023/05/12 08:16:05;;;;;;;3.70;2.38;;;14.40;99.90;;;13.57;100.00;97481.28;5010749;28;20111;-77
2023/05/12 08:18:32;;;;;;;6.60;2.65;;;14.40;99.90;;;13.93;100.00;97492.31;5011635;28;20049;-77
2023/05/12 08:20:59;;;;;;;3.35;2.45;;;14.50;99.90;;;14.24;100.00;97480.94;5011287;28;20192;-77
2023/05/12 08:23:26;;;;;;;5.35;2.60;;;14.50;99.90;;;14.43;100.00;97485.88;5041838;28;20059;-77
2023/05/12 08:25:53;;;;;;;4.93;2.92;;;14.70;99.90;;;13.66;100.00;97482.53;5011395;28;20053;-77
2023/05/12 08:28:21;;;;;;;4.43;3.40;;;14.80;99.90;;;13.55;100.00;97485.75;5025345;28;20137;-77
2023/05/12 08:30:48;;;;;;;4.97;3.33;;;14.60;99.90;;;13.34;100.00;97494.72;5025946;28;20057;-77
2023/05/12 08:33:16;;;;;;;4.03;3.50;;;14.40;99.90;;;13.59;100.00;97499.44;5025682;28;20041;-77
2023/05/12 08:35:43;;;;;;;4.13;3.53;;;14.30;99.90;;;13.97;100.00;97499.88;5009189;28;20042;-77
2023/05/12 08:38:11;;;;;;;5.80;3.78;;;14.30;99.90;;;13.97;100.00;97497.25;5007850;28;20053;-77
2023/05/12 08:41:00;;;;;;;4.53;3.42;;;14.50;99.90;;;13.78;100.00;97497.47;5010627;28;20077;-77
2023/05/12 08:43:43;;;;;;;8.30;4.00;;;14.60;99.90;;;13.83;100.00;97502.44;5029133;28;20056;-77
2023/05/12 08:46:12;;;;;;;5.93;3.55;;;14.60;99.90;;;14.02;100.00;97499.59;5004204;28;20050;-77
2023/05/12 08:48:41;;;;;;;4.97;3.25;;;14.80;99.90;;;13.96;100.00;97494.75;5028556;28;20532;-77
2023/05/12 08:51:10;;;;;;;3.38;2.72;;;14.70;99.90;;;14.04;100.00;97489.09;5028185;28;20053;-78
2023/05/12 08:53:40;;;;;;;6.50;3.20;;;14.80;99.90;;;14.51;100.00;97490.69;5028327;28;20148;-77
2023/05/12 08:56:10;;;;;;;5.38;3.72;;;15.00;99.90;;;14.58;100.00;97489.41;5024949;28;20075;-77
2023/05/12 08:58:44;;;;;;;3.35;2.70;;;15.30;99.90;;;14.49;100.00;97482.91;5031350;28;20077;-77
2023/05/12 09:01:16;;;;;;;4.30;2.90;;;15.30;99.90;;;15.00;100.00;97487.69;5015817;28;20041;-77
2023/05/12 09:03:44;;;;;;;;;;;15.40;99.90;;;14.65;100.00;97482.88;5023102;28;20045;-77
2023/05/12 09:06:12;;;;;;;3.55;2.78;;;15.40;99.90;;;14.83;100.00;97484.38;5018410;28;20013;-77
2023/05/12 09:08:40;;;;;;;4.80;3.05;;;15.40;99.90;;;14.41;100.00;97488.63;5021093;28;20049;-77
2023/05/12 09:11:13;;;;;;;4.10;3.30;;;15.40;99.90;;;14.61;100.00;97490.03;5022529;28;20129;-77
2023/05/12 09:14:03;;;;;;;7.20;5.00;;;15.30;99.90;;;13.98;100.00;97493.72;5022110;28;20137;-78
2023/05/12 09:16:36;;;;;;;6.88;5.03;;;15.10;99.90;;;13.88;100.00;97496.94;5039788;28;20156;-77
2023/05/12 09:19:05;;;;;;;7.18;5.47;;;15.00;99.90;;;13.71;100.00;97500.53;5024768;28;20048;-77
2023/05/12 09:21:33;;;;;;;7.68;4.55;;;14.70;99.90;;;14.07;100.00;97510.63;5001275;28;20046;-78
2023/05/12 09:24:06;;;;;;;6.10;4.32;;;14.90;99.90;;;14.03;100.00;97509.13;5023288;28;20061;-75
2023/05/12 09:26:51;;;;;;;6.32;5.05;;;15.00;99.90;;;14.12;100.00;97505.97;5024398;28;20049;-78
2023/05/12 09:29:19;;;;;;;7.88;5.07;;;14.80;99.90;;;14.51;100.00;97506.34;5026740;28;20042;-79
2023/05/12 09:32:02;;;;;;;8.65;5.20;;;14.90;99.90;;;14.33;100.00;97509.09;5026342;28;20532;-78
2023/05/12 09:34:36;;;;;;;8.00;6.40;;;15.00;99.90;;;14.85;100.00;97505.19;5045901;28;20057;-78
2023/05/12 09:37:06;;;;;;;7.57;5.75;;;15.10;99.90;;;14.73;100.00;97498.91;5027044;28;20053;-77
2023/05/12 09:39:33;;;;;;;7.40;5.80;;;15.20;99.90;;;14.73;100.00;97500.69;5032821;28;20049;-77
2023/05/12 09:42:01;;;;;;;5.25;4.53;;;15.30;99.90;;;14.11;100.00;97491.22;5012505;28;20080;-78
2023/05/12 09:44:28;;;;;;;6.38;5.20;;;15.20;99.90;;;13.97;100.00;97493.81;5027024;28;20120;-78
2023/05/12 09:47:06;;;;;;;5.40;4.47;;;15.00;99.90;;;13.92;100.00;97506.28;5023915;28;20482;-79
2023/05/12 09:49:33;;;;;;;6.82;4.97;;;14.90;99.90;;;14.03;100.00;97514.34;5025399;28;20156;-78
2023/05/12 09:52:03;;;;;;;9.05;4.72;;;14.80;99.90;;;13.73;100.00;97511.69;5027366;28;20064;-78
2023/05/12 09:54:33;;;;;;;5.72;4.60;;;14.70;99.90;;;13.85;100.00;97507.56;5023897;28;20053;-78
2023/05/12 09:57:03;;;;;;;6.60;5.50;;;14.80;99.90;;;13.93;100.00;97518.41;5027904;28;20260;-79
2023/05/12 09:59:33;;;;;;;8.40;5.13;;;14.70;99.90;;;14.10;100.00;97507.00;5029054;28;20514;-78
2023/05/12 10:02:04;;;;;;;6.28;4.32;;;14.70;99.90;;;14.14;100.00;97508.47;5011790;28;20725;-78
2023/05/12 10:04:46;;;;;;;7.07;4.03;;;14.90;99.90;;;14.04;100.00;97508.19;5028796;28;20060;-79
2023/05/12 10:07:16;;;;;;;4.60;3.58;;;14.90;99.90;;;14.36;100.00;97503.69;5012219;28;20160;-78
2023/05/12 10:09:45;;;;;;;7.20;4.05;;;14.90;99.90;;;14.22;100.00;97496.66;5024051;28;20045;-79
2023/05/12 10:12:13;;;;;;;5.32;3.92;;;15.00;99.90;;;14.04;100.00;97500.34;5021346;28;20236;-78
2023/05/12 10:14:40;;;;;;;5.15;3.67;;;14.90;99.90;;;14.23;100.00;97498.38;5023072;28;20053;-78
2023/05/12 10:17:09;;;;;;;4.28;3.40;;;14.90;99.90;;;14.59;100.00;97491.91;5012067;28;20104;-78